Time;durP1;ratioP1;P1;durP2;ratioP2;P2;SDS_P1;SDS_P2;PMS_P1;PMS_P2;Temp;Humidity;BMP_temperature;BMP_pressure;BME280_temperature;BME280_humidity;BME280_pressure;Samples;Min_cycle;Max_cycle;Signal;HPM_P1;HPM_P2
2021/07/20 00:00:21;;;;;;;21.13;17.03;;;16.40;1.00;17.00;100907.00;;;;4880494;29;20491;-68
2021/07/20 00:02:52;;;;;;;26.60;18.97;;;16.20;1.00;17.10;100901.00;;;;4885310;29;20509;-67
2021/07/20 00:05:25;;;;;;;23.23;18.73;;;16.20;1.00;17.10;100921.00;;;;4885726;29;20459;-67
2021/07/20 00:07:55;;;;;;;22.13;18.20;;;16.20;1.00;17.00;100910.00;;;;4884848;29;20459;-67
2021/07/20 00:10:27;;;;;;;26.20;18.73;;;16.10;1.00;17.00;100914.00;;;;4889862;29;20444;-68
2021/07/20 00:12:56;;;;;;;21.20;18.10;;;16.10;1.00;16.90;100905.00;;;;4874426;29;20455;-67
2021/07/20 00:15:26;;;;;;;22.43;19.03;;;15.90;1.00;16.80;100909.00;;;;4889182;29;20510;-68
2021/07/20 00:17:58;;;;;;;24.57;18.67;;;15.90;1.00;16.70;100905.00;;;;4876143;29;20972;-67
2021/07/20 00:20:29;;;;;;;20.30;18.10;;;15.90;1.00;16.80;100855.00;;;;4887496;29;20464;-68
2021/07/20 00:22:58;;;;;;;21.90;17.63;;;15.90;1.00;16.80;100900.00;;;;4882851;29;20465;-66
2021/07/20 00:25:26;;;;;;;21.17;17.70;;;15.80;1.00;16.80;100898.00;;;;4884769;29;20469;-66
2021/07/20 00:27:55;;;;;;;22.77;18.13;;;15.80;1.00;16.80;100883.00;;;;4894360;29;20471;-66
2021/07/20 00:30:25;;;;;;;23.40;17.43;;;15.90;1.00;16.80;100898.00;;;;4904241;29;20471;-65
2021/07/20 00:32:53;;;;;;;21.33;17.70;;;15.90;1.00;16.80;100880.00;;;;4910063;29;20450;-65
2021/07/20 00:35:22;;;;;;;22.83;18.27;;;15.80;1.00;16.70;100907.00;;;;4888721;29;20522;-68
2021/07/20 00:37:52;;;;;;;19.67;16.87;;;15.80;1.00;16.70;100903.00;;;;4885084;29;20473;-68
2021/07/20 00:40:21;;;;;;;18.73;16.63;;;15.80;1.00;16.70;100882.00;;;;4890117;29;20464;-67
2021/07/20 00:42:55;;;;;;;17.90;15.27;;;15.70;1.00;16.70;100898.00;;;;4881027;29;20455;-67
2021/07/20 00:45:24;;;;;;;23.70;17.27;;;15.90;1.00;16.60;100867.00;;;;4888368;29;20487;-67
2021/07/20 00:47:53;;;;;;;21.50;16.30;;;15.90;1.00;16.80;100890.00;;;;4884176;29;20459;-66
2021/07/20 00:50:29;;;;;;;19.47;16.10;;;15.90;1.00;16.80;100898.00;;;;4884692;29;21103;-68
2021/07/20 00:53:01;;;;;;;18.50;16.50;;;15.90;1.00;16.70;100650.00;;;;4881911;29;20878;-68
2021/07/20 00:55:30;;;;;;;20.87;16.50;;;15.90;1.00;16.60;100891.00;;;;4883556;29;20455;-66
2021/07/20 00:57:59;;;;;;;17.40;15.60;;;15.80;1.00;16.60;100900.00;;;;4883380;29;20487;-68
2021/07/20 01:00:28;;;;;;;17.30;14.87;;;15.80;1.00;16.60;100893.00;;;;4884373;29;20483;-68
2021/07/20 01:02:56;;;;;;;18.60;15.40;;;15.70;1.00;16.60;100894.00;;;;4886778;29;21048;-68
2021/07/20 01:05:27;;;;;;;19.73;15.93;;;15.70;1.00;16.50;100894.00;;;;4886270;29;20589;-68
2021/07/20 01:08:00;;;;;;;19.10;15.23;;;15.70;1.00;16.50;100880.00;;;;4890415;29;20447;-66
2021/07/20 01:10:31;;;;;;;17.13;14.63;;;15.70;1.00;16.50;100889.00;;;;4893666;29;21052;-66
2021/07/20 01:13:01;;;;;;;18.90;15.70;;;15.70;1.00;16.50;100849.00;;;;4872992;29;20554;-68
2021/07/20 01:15:31;;;;;;;18.93;16.03;;;15.80;1.00;16.50;100831.00;;;;4872930;29;20542;-68
2021/07/20 01:18:01;;;;;;;19.37;15.43;;;15.80;1.00;16.50;100886.00;;;;4885358;29;20458;-68
2021/07/20 01:20:33;;;;;;;19.80;16.17;;;15.80;1.00;16.50;100895.00;;;;4883312;29;20524;-66
2021/07/20 01:23:09;;;;;;;19.60;15.50;;;15.90;1.00;16.40;100879.00;;;;4886949;29;20443;-68
2021/07/20 01:25:42;;;;;;;18.50;16.20;;;15.70;1.00;16.50;100852.00;;;;4888092;29;20972;-67
2021/07/20 01:28:18;;;;;;;17.00;14.77;;;15.70;1.00;16.50;100869.00;;;;4884183;29;21096;-68
2021/07/20 01:30:53;;;;;;;17.63;14.77;;;15.70;1.00;16.40;100877.00;;;;4888315;29;20494;-68
2021/07/20 01:33:23;;;;;;;20.40;15.90;;;15.70;1.00;16.40;100867.00;;;;4886687;29;21231;-68
2021/07/20 01:35:54;;;;;;;20.47;16.60;;;15.60;1.00;16.50;100873.00;;;;4876330;29;20470;-67
2021/07/20 01:38:24;;;;;;;18.43;16.43;;;15.60;1.00;16.50;100871.00;;;;4872796;29;20507;-68
2021/07/20 01:40:59;;;;;;;18.90;15.07;;;15.60;1.00;16.50;100838.00;;;;4885780;29;20491;-69
2021/07/20 01:43:31;;;;;;;19.70;15.10;;;15.60;1.00;16.40;100855.00;;;;4874125;29;20463;-69
2021/07/20 01:46:00;;;;;;;17.10;14.63;;;15.60;1.00;16.40;100868.00;;;;4882803;29;20550;-68
2021/07/20 01:48:36;;;;;;;18.83;15.73;;;15.70;1.00;16.40;100862.00;;;;4883106;29;20487;-67
2021/07/20 01:51:15;;;;;;;17.70;15.80;;;15.60;1.00;16.40;100875.00;;;;4886756;29;20957;-69
2021/07/20 01:53:46;;;;;;;19.80;15.30;;;15.60;1.00;16.40;100834.00;;;;4881967;29;20459;-68
2021/07/20 01:56:17;;;;;;;18.83;15.00;;;15.50;1.00;16.40;100883.00;;;;4874750;29;20479;-68
2021/07/20 01:58:45;;;;;;;19.10;15.17;;;15.50;1.00;16.30;100865.00;;;;4883919;29;21209;-69
2021/07/20 02:01:32;;;;;;;21.93;15.60;;;15.70;1.00;16.30;100877.00;;;;4881341;29;20455;-68
2021/07/20 02:04:21;;;;;;;20.30;15.77;;;15.50;1.00;16.00;100867.00;;;;4889099;29;20467;-68
2021/07/20 02:09:42;;;;;;;19.00;15.20;;;15.50;1.00;16.20;100824.00;;;;4883942;29;20494;-67
2021/07/20 02:12:16;;;;;;;17.90;16.10;;;15.40;1.00;16.10;100862.00;;;;4888141;29;21166;-67
2021/07/20 02:15:07;;;;;;;18.07;15.60;;;15.40;1.00;16.10;100882.00;;;;4887334;29;20822;-66
2021/07/20 02:18:06;;;;;;;19.47;15.80;;;15.40;1.00;16.10;100886.00;;;;4892232;29;20479;-64
2021/07/20 02:20:39;;;;;;;19.00;15.43;;;15.30;1.00;16.00;100887.00;;;;4914152;29;20468;-66
2021/07/20 02:23:12;;;;;;;19.40;16.30;;;15.30;1.00;16.00;100869.00;;;;4906801;29;20455;-65
2021/07/20 02:25:41;;;;;;;19.83;16.50;;;15.20;1.00;15.90;100880.00;;;;4898928;29;20456;-67
2021/07/20 02:28:28;;;;;;;23.20;17.70;;;15.20;1.00;15.90;100880.00;;;;4888929;29;20507;-68
2021/07/20 02:30:59;;;;;;;21.10;16.70;;;15.10;1.00;15.90;100881.00;;;;4883389;29;20837;-68
2021/07/20 02:33:30;;;;;;;18.73;16.73;;;15.10;1.00;15.80;100798.00;;;;4883326;29;20604;-68
2021/07/20 02:35:59;;;;;;;24.67;16.80;;;15.10;1.00;15.90;100830.00;;;;4876542;29;20459;-68
2021/07/20 02:38:34;;;;;;;20.87;15.43;;;15.10;1.00;15.80;100887.00;;;;4872323;29;20480;-68
2021/07/20 02:41:03;;;;;;;21.10;17.37;;;15.10;1.00;15.90;100839.00;;;;4886905;29;20492;-67
2021/07/20 02:43:35;;;;;;;20.43;15.73;;;15.10;1.00;15.90;100887.00;;;;4882705;29;20464;-68
2021/07/20 02:46:06;;;;;;;20.60;16.90;;;15.10;1.00;15.80;100874.00;;;;4886263;29;20542;-68
2021/07/20 02:48:37;;;;;;;18.73;16.73;;;15.10;1.00;15.80;100880.00;;;;4885993;29;20479;-65
2021/07/20 02:51:08;;;;;;;19.30;17.30;;;15.00;1.00;15.70;100859.00;;;;4901016;29;20463;-66
2021/07/20 02:53:44;;;;;;;24.93;16.50;;;15.00;1.00;15.70;100850.00;;;;4896011;29;20484;-64
2021/07/20 02:56:18;;;;;;;18.63;16.53;;;14.90;1.00;15.60;100800.00;;;;4907363;29;20984;-64
2021/07/20 02:59:00;;;;;;;21.70;17.50;;;14.90;1.00;15.60;100834.00;;;;4889379;29;20565;-67
2021/07/20 03:01:47;;;;;;;19.40;17.30;;;14.90;1.00;15.60;100816.00;;;;4897168;29;20546;-68
2021/07/20 03:04:17;;;;;;;19.83;16.37;;;14.90;1.00;15.60;100864.00;;;;4886394;29;20479;-66
2021/07/20 03:06:53;;;;;;;21.57;17.77;;;15.00;1.00;15.60;100852.00;;;;4882336;29;20486;-66
2021/07/20 03:09:24;;;;;;;22.17;17.10;;;15.00;1.00;15.60;100850.00;;;;4891698;29;20483;-67
2021/07/20 03:12:00;;;;;;;20.40;17.57;;;15.00;1.00;15.60;100857.00;;;;4884713;29;20451;-66
2021/07/20 03:14:33;;;;;;;20.20;18.07;;;15.10;1.00;15.60;100860.00;;;;4882481;29;20471;-66
2021/07/20 03:17:13;;;;;;;23.63;18.63;;;14.90;1.00;15.60;100870.00;;;;4877344;29;21386;-67
2021/07/20 03:19:46;;;;;;;25.13;18.87;;;15.00;1.00;15.60;100856.00;;;;4890625;29;20558;-65
2021/07/20 03:22:26;;;;;;;22.97;17.20;;;15.00;1.00;15.60;100854.00;;;;4880155;29;21196;-68
2021/07/20 03:24:59;;;;;;;20.50;15.60;;;15.00;1.00;15.20;100867.00;;;;4882359;29;20456;-68
2021/07/20 03:27:32;;;;;;;25.60;17.90;;;15.00;1.00;15.60;100867.00;;;;4896322;29;21244;-68
2021/07/20 03:30:09;;;;;;;20.40;17.40;;;14.90;1.00;15.50;100864.00;;;;4882308;29;20558;-67
2021/07/20 03:32:44;;;;;;;25.17;18.00;;;15.00;1.00;15.60;100868.00;;;;4881577;29;20482;-70
2021/07/20 03:35:16;;;;;;;19.80;17.47;;;15.00;1.00;15.70;100860.00;;;;4886494;29;20554;-66
2021/07/20 03:37:46;;;;;;;25.50;17.90;;;15.10;1.00;15.70;100861.00;;;;4890142;29;21627;-67
2021/07/20 03:40:16;;;;;;;21.07;16.27;;;15.20;1.00;15.80;100864.00;;;;4883193;29;20459;-70
2021/07/20 03:42:45;;;;;;;21.93;16.97;;;15.20;1.00;15.80;100875.00;;;;4887352;29;20652;-70
2021/07/20 03:45:21;;;;;;;21.00;17.10;;;15.20;1.00;15.80;100818.00;;;;4887037;29;20485;-69
2021/07/20 03:47:50;;;;;;;20.63;16.50;;;15.30;1.00;15.80;100837.00;;;;4887696;29;21107;-70
2021/07/20 03:50:32;;;;;;;20.10;16.47;;;15.40;1.00;15.90;100862.00;;;;4884423;29;21226;-69
2021/07/20 03:53:02;;;;;;;19.57;15.57;;;15.40;1.00;15.90;100854.00;;;;4886875;29;20494;-70
2021/07/20 03:55:32;;;;;;;20.70;17.30;;;15.40;1.00;16.00;100851.00;;;;4891866;29;20482;-69
2021/07/20 03:58:00;;;;;;;19.87;16.87;;;15.40;1.00;15.90;100872.00;;;;4885660;29;20886;-69
2021/07/20 04:00:31;;;;;;;21.40;17.33;;;15.50;1.00;15.90;100862.00;;;;4902073;29;20466;-70
2021/07/20 04:06:07;;;;;;;24.47;16.70;;;15.40;1.00;16.00;100866.00;;;;4890115;29;20465;-70
2021/07/20 04:08:45;;;;;;;20.40;16.83;;;15.40;1.00;16.00;100876.00;;;;4887907;29;20495;-69
2021/07/20 04:11:17;;;;;;;22.10;17.40;;;15.40;1.00;16.00;100870.00;;;;4889829;29;20841;-70
2021/07/20 04:13:53;;;;;;;23.43;16.07;;;15.40;1.00;16.00;100866.00;;;;4912631;29;20450;-69
2021/07/20 04:16:46;;;;;;;20.60;17.57;;;15.50;1.00;16.10;100870.00;;;;4911393;29;20497;-69
2021/07/20 04:19:17;;;;;;;25.10;17.27;;;15.50;1.00;15.90;100880.00;;;;4892475;29;20875;-67
2021/07/20 04:22:06;;;;;;;20.13;16.73;;;15.50;1.00;16.10;100822.00;;;;4888647;29;20534;-68
2021/07/20 04:24:35;;;;;;;22.50;17.10;;;15.50;1.00;16.10;100873.00;;;;4890127;29;20460;-70
2021/07/20 04:27:07;;;;;;;23.83;17.97;;;15.50;1.00;16.00;100879.00;;;;4885818;29;20459;-70
2021/07/20 04:29:38;;;;;;;23.57;16.27;;;15.50;1.00;16.00;100880.00;;;;4884867;29;20479;-70
2021/07/20 04:32:11;;;;;;;21.93;16.53;;;15.50;1.00;16.10;100829.00;;;;4888361;29;20523;-70
2021/07/20 04:34:40;;;;;;;22.00;16.70;;;15.50;1.00;16.20;100871.00;;;;4899054;29;20470;-70
2021/07/20 04:37:20;;;;;;;21.93;16.27;;;15.60;1.00;16.30;100869.00;;;;4887439;29;20553;-70
2021/07/20 04:39:54;;;;;;;17.37;15.57;;;15.70;1.00;16.30;100881.00;;;;4885423;29;20475;-69
2021/07/20 04:42:26;;;;;;;24.17;17.00;;;15.70;1.00;16.40;100876.00;;;;4877920;29;20558;-70
2021/07/20 04:44:54;;;;;;;20.87;16.70;;;15.70;1.00;16.40;100870.00;;;;4890534;29;20750;-70
2021/07/20 04:47:46;;;;;;;21.43;16.43;;;15.70;1.00;16.40;100874.00;;;;4889733;29;20463;-70
2021/07/20 04:50:33;;;;;;;26.63;17.77;;;15.70;1.00;16.40;100874.00;;;;4886231;29;20453;-70
2021/07/20 04:53:05;;;;;;;22.17;16.60;;;15.80;1.00;16.40;100884.00;;;;4885577;29;21375;-70
2021/07/20 04:55:35;;;;;;;21.47;15.57;;;15.80;1.00;16.50;100876.00;;;;4885019;29;20535;-70
2021/07/20 04:58:04;;;;;;;24.07;16.47;;;15.80;1.00;16.50;100887.00;;;;4886810;29;21601;-71
2021/07/20 05:00:33;;;;;;;18.60;16.43;;;15.90;1.00;16.60;100883.00;;;;4876796;29;20558;-71
2021/07/20 05:03:06;;;;;;;25.50;16.90;;;15.90;1.00;16.70;100889.00;;;;4883960;29;20502;-70
2021/07/20 05:05:39;;;;;;;20.80;17.20;;;16.00;1.00;16.70;100826.00;;;;4890359;29;20493;-71
2021/07/20 05:08:16;;;;;;;19.10;16.20;;;16.00;1.00;16.80;100897.00;;;;4887170;29;20537;-69
2021/07/20 05:10:52;;;;;;;18.60;15.00;;;16.10;1.00;16.90;100905.00;;;;4881657;29;20503;-71
2021/07/20 05:13:27;;;;;;;24.40;16.23;;;16.20;1.00;16.90;100896.00;;;;4905561;29;20475;-69
2021/07/20 05:15:59;;;;;;;20.73;16.97;;;16.20;1.00;16.90;100894.00;;;;4905508;29;20455;-69
2021/07/20 05:18:40;;;;;;;19.83;17.20;;;16.20;1.00;17.00;100899.00;;;;4889581;29;20494;-71
2021/07/20 05:21:24;;;;;;;21.33;17.00;;;16.20;1.00;17.10;100886.00;;;;4892679;29;20467;-70
2021/07/20 05:23:54;;;;;;;25.77;16.90;;;16.30;1.00;17.10;100899.00;;;;4886424;29;20521;-70
2021/07/20 05:26:45;;;;;;;20.47;16.47;;;16.40;1.00;17.20;100896.00;;;;4888212;29;20463;-70
2021/07/20 05:29:20;;;;;;;20.40;15.80;;;16.40;1.00;17.20;100894.00;;;;4883892;29;20491;-70
2021/07/20 05:31:57;;;;;;;21.40;17.40;;;16.50;1.00;17.20;100907.00;;;;4883883;29;20486;-70
2021/07/20 05:34:29;;;;;;;23.80;17.70;;;16.60;1.00;17.40;100898.00;;;;4884240;29;20459;-71
2021/07/20 05:36:58;;;;;;;23.97;16.90;;;16.60;1.00;17.40;100902.00;;;;4892573;29;20455;-71
2021/07/20 05:39:31;;;;;;;19.60;16.53;;;16.70;1.00;17.50;100905.00;;;;4885509;29;20499;-71
2021/07/20 05:42:13;;;;;;;19.23;16.50;;;16.80;1.00;17.60;100900.00;;;;4886944;29;20455;-71
2021/07/20 05:44:42;;;;;;;22.23;16.47;;;16.80;1.00;17.70;100912.00;;;;4886065;29;20999;-72
2021/07/20 05:47:14;;;;;;;20.33;15.70;;;17.00;1.00;17.80;100907.00;;;;4883919;29;20467;-71
2021/07/20 05:50:04;;;;;;;18.70;16.70;;;17.10;1.00;17.80;100908.00;;;;4884151;29;20482;-71
2021/07/20 05:52:56;;;;;;;21.90;17.23;;;17.20;1.00;17.90;100916.00;;;;4888291;29;20483;-71
2021/07/20 05:55:31;;;;;;;23.13;17.37;;;17.20;1.00;18.00;100915.00;;;;4885642;29;20475;-70
2021/07/20 05:58:01;;;;;;;19.90;16.23;;;17.30;1.00;18.20;100913.00;;;;4885249;29;20506;-70
2021/07/20 06:00:31;;;;;;;19.80;15.60;;;17.40;1.00;18.30;100913.00;;;;4880571;29;20557;-69
2021/07/20 06:03:15;;;;;;;20.37;17.40;;;17.60;1.00;18.40;100919.00;;;;4881701;29;20463;-69
2021/07/20 06:05:48;;;;;;;21.60;16.30;;;17.60;1.00;18.40;100910.00;;;;4911388;29;20728;-70
2021/07/20 06:08:19;;;;;;;20.67;17.30;;;17.60;1.00;18.50;100917.00;;;;4905049;29;20530;-68
2021/07/20 06:10:52;;;;;;;21.77;16.13;;;17.60;1.00;18.40;100906.00;;;;4923804;29;20459;-71
2021/07/20 06:13:25;;;;;;;19.97;16.20;;;17.70;1.00;18.60;100923.00;;;;4903603;29;20471;-71
2021/07/20 06:15:54;;;;;;;18.27;15.50;;;17.90;1.00;18.60;100934.00;;;;4899973;29;20530;-71
2021/07/20 06:18:23;;;;;;;20.70;15.47;;;17.90;1.00;18.70;100921.00;;;;4888934;29;20483;-71
2021/07/20 06:20:57;;;;;;;23.77;16.40;;;17.90;1.00;18.70;100937.00;;;;4889277;29;20455;-71
2021/07/20 06:23:29;;;;;;;21.50;15.43;;;18.00;1.00;18.70;100933.00;;;;4882121;29;20966;-70
2021/07/20 06:25:58;;;;;;;17.50;15.53;;;18.10;1.00;18.80;100946.00;;;;4886472;29;20463;-70
2021/07/20 06:28:27;;;;;;;21.83;15.10;;;18.10;1.00;18.90;100947.00;;;;4884554;29;20590;-70
2021/07/20 06:30:56;;;;;;;19.70;15.13;;;18.20;1.00;19.00;100941.00;;;;4882783;29;21024;-70
2021/07/20 06:33:27;;;;;;;19.97;17.13;;;18.40;1.00;19.10;100932.00;;;;4887215;29;20459;-70
2021/07/20 06:35:59;;;;;;;17.80;14.93;;;18.50;1.00;19.30;100924.00;;;;4886676;29;20534;-69
2021/07/20 06:38:29;;;;;;;18.40;15.40;;;18.50;1.00;19.30;100939.00;;;;4884539;29;20475;-70
2021/07/20 06:40:58;;;;;;;17.17;14.03;;;18.70;1.00;19.40;100951.00;;;;4887268;29;20461;-70
2021/07/20 06:43:27;;;;;;;17.60;14.67;;;18.70;1.00;19.40;100970.00;;;;4885753;29;20458;-70
2021/07/20 06:45:58;;;;;;;18.13;14.97;;;18.70;1.00;19.40;100953.00;;;;4886058;29;20559;-71
2021/07/20 06:48:29;;;;;;;19.47;14.47;;;18.70;1.00;19.50;100950.00;;;;4885280;29;20486;-70
2021/07/20 06:50:59;;;;;;;23.30;16.67;;;18.80;1.00;19.50;100944.00;;;;4892461;29;20469;-70
2021/07/20 06:53:28;;;;;;;17.37;14.90;;;18.90;1.00;19.50;100958.00;;;;4884265;29;20455;-70
2021/07/20 06:55:59;;;;;;;19.03;14.37;;;18.90;1.00;19.50;100946.00;;;;4884246;29;20486;-70
2021/07/20 06:58:29;;;;;;;18.13;13.73;;;18.90;1.00;19.50;100947.00;;;;4883113;29;20578;-71
2021/07/20 07:01:00;;;;;;;15.77;13.57;;;19.00;1.00;19.50;100960.00;;;;4883002;29;20459;-71
2021/07/20 07:03:33;;;;;;;22.73;14.60;;;18.90;1.00;19.50;100932.00;;;;4885977;29;20468;-70
2021/07/20 07:06:04;;;;;;;18.83;13.57;;;18.90;1.00;19.60;100958.00;;;;4886799;29;20469;-69
2021/07/20 07:08:34;;;;;;;18.30;13.10;;;19.00;1.00;19.60;100957.00;;;;4886123;29;20480;-70
2021/07/20 07:11:06;;;;;;;18.17;12.13;;;19.10;1.00;19.60;100963.00;;;;4887467;29;20459;-70
2021/07/20 07:13:36;;;;;;;19.33;13.10;;;19.10;1.00;19.60;100957.00;;;;4885628;29;20464;-70
2021/07/20 07:16:05;;;;;;;17.07;12.83;;;19.10;1.00;19.60;100957.00;;;;4882973;29;20468;-70
2021/07/20 07:18:34;;;;;;;19.03;13.07;;;19.10;1.00;19.70;100952.00;;;;4889343;29;20568;-71
2021/07/20 07:21:04;;;;;;;15.90;11.50;;;19.30;1.00;19.90;100962.00;;;;4889075;29;21397;-70
2021/07/20 07:23:35;;;;;;;14.57;12.80;;;19.40;1.00;19.90;100945.00;;;;4886705;29;20505;-70
2021/07/20 07:26:04;;;;;;;14.93;12.70;;;19.40;1.00;19.90;100964.00;;;;4888251;29;20454;-71
2021/07/20 07:28:33;;;;;;;16.03;13.73;;;19.40;1.00;20.00;100956.00;;;;4888600;29;20491;-70
2021/07/20 07:31:02;;;;;;;18.47;12.77;;;19.50;1.00;20.10;100964.00;;;;4888702;29;20474;-69
2021/07/20 07:33:30;;;;;;;15.50;12.70;;;19.70;1.00;20.20;100961.00;;;;4892487;29;20466;-71
2021/07/20 07:35:59;;;;;;;15.80;12.70;;;19.80;1.00;20.30;100929.00;;;;4882778;29;20478;-70
2021/07/20 07:38:29;;;;;;;13.43;11.23;;;19.90;1.00;20.30;100948.00;;;;4904029;29;20509;-71
2021/07/20 07:40:58;;;;;;;14.60;11.23;;;19.90;1.00;20.30;100961.00;;;;4905237;29;20551;-71
2021/07/20 07:43:29;;;;;;;19.30;11.77;;;19.90;1.00;20.40;100961.00;;;;4903114;29;20460;-69
2021/07/20 07:45:59;;;;;;;17.30;11.80;;;20.00;1.00;20.30;100962.00;;;;4901791;29;20464;-71
2021/07/20 07:48:29;;;;;;;15.20;11.23;;;20.00;1.00;20.30;100940.00;;;;4896000;29;20478;-70
2021/07/20 07:50:58;;;;;;;14.60;11.23;;;19.90;1.00;20.30;100954.00;;;;4890169;29;20562;-69
2021/07/20 07:53:28;;;;;;;14.97;12.27;;;19.80;1.00;20.30;100957.00;;;;4892786;29;20509;-70
2021/07/20 07:55:57;;;;;;;13.60;11.13;;;19.90;1.00;20.40;100961.00;;;;4889378;29;20471;-70
2021/07/20 07:58:29;;;;;;;12.90;11.50;;;20.00;1.00;20.40;100931.00;;;;4908551;29;20550;-68
2021/07/20 08:00:59;;;;;;;15.50;11.23;;;20.00;1.00;20.70;100959.00;;;;4906676;29;20502;-69
2021/07/20 08:03:33;;;;;;;15.67;11.93;;;20.30;1.00;20.80;100953.00;;;;4915844;29;20459;-70
2021/07/20 08:06:04;;;;;;;12.10;10.63;;;20.50;1.00;20.90;100941.00;;;;4902813;29;20446;-70
2021/07/20 08:08:37;;;;;;;11.67;9.87;;;20.50;1.00;20.90;100950.00;;;;4896254;29;20961;-71
2021/07/20 08:11:06;;;;;;;20.63;11.57;;;20.50;1.00;20.80;100942.00;;;;4896338;29;20443;-70
2021/07/20 08:13:38;;;;;;;15.17;11.30;;;20.60;1.00;20.90;100954.00;;;;4897354;29;20894;-70
2021/07/20 08:16:08;;;;;;;13.30;11.10;;;20.70;1.00;21.10;100949.00;;;;4891947;29;20514;-71
2021/07/20 08:18:37;;;;;;;12.13;9.93;;;20.80;1.00;21.30;100964.00;;;;4894491;29;20502;-71
2021/07/20 08:21:06;;;;;;;11.90;9.83;;;20.90;1.00;21.30;100948.00;;;;4892317;29;20602;-68
2021/07/20 08:23:38;;;;;;;13.97;10.20;;;21.10;1.00;21.90;100957.00;;;;4891817;29;20492;-67
2021/07/20 08:26:10;;;;;;;11.73;9.60;;;21.50;1.00;22.10;100940.00;;;;4891225;29;20466;-69
2021/07/20 08:28:47;;;;;;;10.20;8.63;;;21.50;1.00;22.20;100945.00;;;;4890100;29;20488;-70
2021/07/20 08:31:18;;;;;;;9.83;8.67;;;21.70;1.00;22.40;100942.00;;;;4893245;29;20498;-69
2021/07/20 08:33:56;;;;;;;11.53;8.73;;;22.00;1.00;22.70;100959.00;;;;4895074;29;20475;-70
2021/07/20 08:36:27;;;;;;;11.20;8.53;;;22.40;1.00;22.80;100950.00;;;;4895953;29;20446;-70
2021/07/20 08:38:58;;;;;;;10.70;9.10;;;22.40;1.00;23.00;100947.00;;;;4895475;29;20522;-69
2021/07/20 08:41:45;;;;;;;11.93;9.20;;;22.60;1.00;22.90;100945.00;;;;4894312;29;20476;-70
2021/07/20 08:44:43;;;;;;;12.30;9.20;;;22.60;1.00;23.00;100944.00;;;;4890181;29;20455;-69
2021/07/20 08:47:21;;;;;;;12.03;9.30;;;22.70;1.00;22.90;100943.00;;;;4885492;29;20451;-71
2021/07/20 08:50:20;;;;;;;9.60;8.60;;;22.70;1.00;22.70;100956.00;;;;4888606;29;20817;-69
2021/07/20 08:53:04;;;;;;;9.93;8.40;;;22.50;1.00;22.50;100954.00;;;;4918114;29;20475;-69
2021/07/20 08:55:40;;;;;;;11.00;8.97;;;22.20;1.00;22.70;100965.00;;;;4908598;29;20519;-70
2021/07/20 08:58:20;;;;;;;14.37;8.90;;;22.30;1.00;22.50;100951.00;;;;4902736;29;20462;-69
2021/07/20 09:00:55;;;;;;;9.53;8.53;;;22.30;1.00;22.60;100943.00;;;;4879640;29;20566;-71
2021/07/20 09:03:46;;;;;;;11.50;7.97;;;22.40;1.00;22.40;100952.00;;;;4898261;29;22042;-72
2021/07/20 09:06:21;;;;;;;12.27;9.33;;;22.20;1.00;22.20;100961.00;;;;4886382;29;20467;-70
2021/07/20 09:08:55;;;;;;;11.97;8.27;;;22.00;1.00;22.20;100958.00;;;;4888702;29;20517;-72
2021/07/20 09:11:38;;;;;;;9.10;8.00;;;21.80;1.00;21.90;100978.00;;;;4890542;29;20490;-75
2021/07/20 09:14:16;;;;;;;10.73;8.67;;;21.50;1.00;21.70;100931.00;;;;4902593;29;20495;-74
2021/07/20 09:16:48;;;;;;;11.80;9.47;;;21.30;1.00;21.50;100973.00;;;;4887833;29;21300;-75
2021/07/20 09:19:29;;;;;;;11.53;9.57;;;21.10;1.00;21.90;100917.00;;;;4889806;29;20542;-78
2021/07/20 09:22:01;;;;;;;12.50;8.73;;;21.50;1.00;22.30;100956.00;;;;4902926;29;20479;-74
2021/07/20 09:24:35;;;;;;;12.17;8.90;;;22.00;1.00;22.70;100958.00;;;;4888625;29;21240;-79
2021/07/20 09:27:12;;;;;;;10.07;9.00;;;22.40;1.00;23.20;100934.00;;;;4889914;29;20462;-76
2021/07/20 09:30:07;;;;;;;10.30;8.53;;;22.90;1.00;23.50;100955.00;;;;4890247;29;20490;-76
2021/07/20 09:33:00;;;;;;;10.70;8.30;;;23.30;1.00;23.40;100980.00;;;;4897367;29;20562;-72
2021/07/20 09:35:37;;;;;;;12.40;8.93;;;23.30;1.00;22.60;100972.00;;;;4901227;29;21014;-74
2021/07/20 09:38:12;;;;;;;10.20;8.67;;;22.30;1.00;22.00;100982.00;;;;4889452;29;20861;-73
2021/07/20 09:40:50;;;;;;;9.70;8.40;;;21.70;1.00;22.00;100964.00;;;;4905802;29;20477;-73
2021/07/20 09:43:52;;;;;;;11.80;8.33;;;21.70;1.00;22.20;100947.00;;;;4906839;29;20463;-73
2021/07/20 09:46:31;;;;;;;10.00;9.00;;;22.00;1.00;22.30;100962.00;;;;4890850;29;20554;-74
2021/07/20 09:49:06;;;;;;;9.30;7.30;;;22.10;1.00;22.30;100926.00;;;;4900116;29;20745;-72
2021/07/20 09:52:23;;;;;;;9.50;8.23;;;22.20;1.00;22.50;100949.00;;;;4909462;29;20463;-75
2021/07/20 09:55:12;;;;;;;11.07;8.40;;;22.30;1.00;22.50;100964.00;;;;4920745;29;20467;-74
2021/07/20 09:57:56;;;;;;;10.20;8.00;;;22.30;1.00;22.40;100956.00;;;;4893504;29;20471;-74
2021/07/20 10:00:34;;;;;;;11.97;9.00;;;22.20;1.00;22.60;100950.00;;;;4899530;29;21434;-75
2021/07/20 10:03:15;;;;;;;12.93;8.60;;;22.40;1.00;22.70;100945.00;;;;4910587;29;20470;-74
2021/07/20 10:05:54;;;;;;;11.83;8.50;;;22.50;1.00;22.80;100955.00;;;;4919597;29;20456;-73
2021/07/20 10:08:31;;;;;;;9.93;8.20;;;22.70;1.00;22.90;100967.00;;;;4896334;29;20494;-74
2021/07/20 10:11:16;;;;;;;11.07;8.60;;;22.80;1.00;22.60;100941.00;;;;4893896;29;20473;-74
2021/07/20 10:13:59;;;;;;;10.03;8.97;;;22.50;1.00;22.70;100938.00;;;;4891333;29;20538;-75
2021/07/20 10:16:44;;;;;;;11.37;8.30;;;22.60;1.00;22.60;100937.00;;;;4884787;29;20967;-75
2021/07/20 10:19:22;;;;;;;9.60;8.00;;;22.60;1.00;22.70;100907.00;;;;4883037;29;20483;-73
2021/07/20 10:21:57;;;;;;;9.73;7.23;;;22.70;1.00;22.70;100947.00;;;;4890846;29;21064;-75
2021/07/20 10:24:28;;;;;;;10.37;7.23;;;22.70;1.00;22.70;100945.00;;;;4890908;29;20567;-75
2021/07/20 10:27:04;;;;;;;9.70;7.50;;;22.80;1.00;22.70;100914.00;;;;4891800;29;20455;-74
2021/07/20 10:29:49;;;;;;;10.00;7.83;;;22.70;1.00;22.60;100934.00;;;;4891440;29;21506;-75
2021/07/20 10:32:23;;;;;;;8.73;7.83;;;22.70;1.00;22.70;100929.00;;;;4885843;29;20469;-73
2021/07/20 10:34:59;;;;;;;9.70;7.97;;;22.80;1.00;22.70;100942.00;;;;4892582;29;20469;-74
2021/07/20 10:37:30;;;;;;;11.53;7.87;;;22.90;1.00;22.90;100931.00;;;;4888352;29;20545;-74
2021/07/20 10:40:07;;;;;;;10.33;7.60;;;23.00;1.00;23.00;100933.00;;;;4896357;29;20566;-74
2021/07/20 10:42:45;;;;;;;8.40;7.37;;;23.10;1.00;23.10;100886.00;;;;4888602;29;20574;-74
2021/07/20 10:45:17;;;;;;;10.53;8.40;;;23.10;1.00;22.90;100912.00;;;;4897376;29;20470;-74
2021/07/20 10:47:51;;;;;;;8.50;6.80;;;22.90;1.00;23.00;100923.00;;;;4897892;29;20533;-74
2021/07/20 10:50:27;;;;;;;8.03;7.23;;;23.00;1.00;23.10;100882.00;;;;4888720;29;20473;-75
2021/07/20 10:53:23;;;;;;;9.40;8.40;;;23.10;1.00;23.20;100919.00;;;;4889573;29;20459;-75
2021/07/20 10:56:04;;;;;;;10.73;8.07;;;23.40;1.00;23.10;100922.00;;;;4898131;29;20475;-78
2021/07/20 10:58:44;;;;;;;8.50;7.57;;;23.50;1.00;23.40;100921.00;;;;4902348;29;20483;-76
2021/07/20 11:01:18;;;;;;;10.87;7.30;;;23.70;1.00;23.60;100909.00;;;;4890910;29;20475;-77
2021/07/20 11:04:09;;;;;;;10.57;7.90;;;23.90;1.00;23.70;100928.00;;;;4894536;29;20464;-77
2021/07/20 11:06:40;;;;;;;8.97;7.43;;;24.00;1.00;23.70;100923.00;;;;4886634;29;20467;-76
2021/07/20 11:09:17;;;;;;;13.07;8.10;;;24.00;1.00;23.80;100921.00;;;;4890034;29;20501;-76
2021/07/20 11:11:51;;;;;;;8.90;7.63;;;24.10;1.00;23.90;100922.00;;;;4897722;29;20473;-77
2021/07/20 11:14:26;;;;;;;9.80;7.50;;;24.20;1.00;24.00;100899.00;;;;4888519;29;20916;-77
2021/07/20 11:16:57;;;;;;;10.27;7.63;;;24.20;1.00;23.90;100927.00;;;;4887097;29;20455;-78
2021/07/20 11:19:29;;;;;;;10.23;7.93;;;24.20;1.00;23.80;100900.00;;;;4891781;29;20519;-76